Time,TemperatureF,DewpointF,PressureIn,WindDirection,WindDirectionDegrees,WindSpeedMPH,WindSpeedGustMPH,Humidity,HourlyPrecipIn,Conditions,Clouds,dailyrainin,SoftwareType,DateUTC
2013-03-27 00:05:00,50.0,40.2,30.25,NNW,327,0.0,-999.0,69,0.00,,,0.00,Wunderground v.1.15,2013-03-27 04:05:00,
2013-03-27 00:10:00,49.9,39.8,30.25,NNW,328,0.0,-999.0,68,0.00,,,0.00,Wunderground v.1.15,2013-03-27 04:10:00,
2013-03-27 00:14:00,49.6,39.5,30.25,NW,326,1.0,-999.0,68,0.00,,,0.00,Wunderground v.1.15,2013-03-27 04:14:00,
2013-03-27 00:20:00,49.4,39.7,30.25,NW,325,1.0,-999.0,69,0.00,,,0.00,Wunderground v.1.15,2013-03-27 04:20:00,
2013-03-27 00:25:00,49.3,39.2,30.25,NNW,328,2.0,-999.0,68,0.00,,,0.00,Wunderground v.1.15,2013-03-27 04:25:00,
2013-03-27 00:35:00,49.2,39.5,30.25,NW,325,1.0,-999.0,69,0.00,,,0.00,Wunderground v.1.15,2013-03-27 04:35:00,
2013-03-27 00:40:00,49.1,39.4,30.25,NW,325,1.0,-999.0,69,0.00,,,0.00,Wunderground v.1.15,2013-03-27 04:40:00,
2013-03-27 00:45:00,49.0,39.6,30.25,NW,325,0.0,-999.0,70,0.00,,,0.00,Wunderground v.1.15,2013-03-27 04:45:00,
2013-03-27 00:50:00,48.9,39.5,30.25,NW,325,0.0,-999.0,70,0.00,,,0.00,Wunderground v.1.15,2013-03-27 04:50:00,
2013-03-27 00:55:00,48.8,39.4,30.25,NW,325,0.0,-999.0,70,0.00,,,0.00,Wunderground v.1.15,2013-03-27 04:55:00,
2013-03-27 01:00:00,48.6,39.3,30.25,NW,325,1.0,-999.0,70,0.00,,,0.00,Wunderground v.1.15,2013-03-27 05:00:00,
2013-03-27 01:04:00,48.5,39.5,30.25,NW,325,1.0,-999.0,71,0.00,,,0.00,Wunderground v.1.15,2013-03-27 05:04:00,
2013-03-27 01:10:00,48.5,39.5,30.25,NW,325,0.0,-999.0,71,0.00,,,0.00,Wunderground v.1.15,2013-03-27 05:10:00,
2013-03-27 01:15:00,48.4,39.8,30.25,NW,325,0.0,-999.0,72,0.00,,,0.00,Wunderground v.1.15,2013-03-27 05:15:00,
2013-03-27 01:20:00,48.4,39.8,30.25,NW,325,0.0,-999.0,72,0.00,,,0.00,Wunderground v.1.15,2013-03-27 05:20:00,
2013-03-27 01:30:00,48.1,39.9,30.25,NW,325,0.0,-999.0,73,0.00,,,0.00,Wunderground v.1.15,2013-03-27 05:30:00,
2013-03-27 01:35:00,48.1,40.2,30.25,NW,325,0.0,-999.0,74,0.00,,,0.00,Wunderground v.1.15,2013-03-27 05:35:00,
2013-03-27 01:40:00,47.9,40.4,30.25,NW,325,0.0,-999.0,75,0.00,,,0.00,Wunderground v.1.15,2013-03-27 05:40:00,
2013-03-27 01:49:00,47.9,40.4,30.25,NW,325,0.0,-999.0,75,0.00,,,0.00,Wunderground v.1.15,2013-03-27 05:49:00,
2013-03-27 01:55:00,47.8,40.9,30.25,NW,325,0.0,-999.0,77,0.00,,,0.00,Wunderground v.1.15,2013-03-27 05:55:00,
2013-03-27 02:00:00,47.8,40.9,30.25,NW,325,0.0,-999.0,77,0.00,,,0.00,Wunderground v.1.15,2013-03-27 06:00:00,
2013-03-27 02:10:00,47.5,40.3,30.24,NW,325,0.0,-999.0,76,0.00,,,0.00,Wunderground v.1.15,2013-03-27 06:10:00,
2013-03-27 02:15:00,47.4,40.2,30.24,NW,325,0.0,-999.0,76,0.00,,,0.00,Wunderground v.1.15,2013-03-27 06:15:00,
2013-03-27 02:20:00,47.2,39.7,30.24,NW,325,0.0,-999.0,75,0.00,,,0.00,Wunderground v.1.15,2013-03-27 06:20:00,
2013-03-27 02:25:00,47.2,40.0,30.24,NW,325,0.0,-999.0,76,0.00,,,0.00,Wunderground v.1.15,2013-03-27 06:25:00,
2013-03-27 02:30:00,47.0,39.5,30.24,NW,325,0.0,-999.0,75,0.00,,,0.00,Wunderground v.1.15,2013-03-27 06:30:00,
2013-03-27 02:40:00,47.0,39.8,30.23,NW,325,0.0,-999.0,76,0.00,,,0.00,Wunderground v.1.15,2013-03-27 06:40:00,
2013-03-27 02:45:00,47.0,41.5,30.23,NW,325,0.0,-999.0,81,0.00,,,0.00,Wunderground v.1.15,2013-03-27 06:45:00,
2013-03-27 02:50:00,47.0,41.5,30.23,NW,325,0.0,-999.0,81,0.00,,,0.00,Wunderground v.1.15,2013-03-27 06:50:00,
2013-03-27 02:55:00,46.8,41.9,30.23,NW,325,0.0,-999.0,83,0.00,,,0.00,Wunderground v.1.15,2013-03-27 06:55:00,
2013-03-27 03:00:00,46.6,42.0,30.23,NW,325,0.0,-999.0,84,0.00,,,0.00,Wunderground v.1.15,2013-03-27 07:00:00,
2013-03-27 03:10:00,46.3,41.4,30.22,NW,325,0.0,-999.0,83,0.00,,,0.00,Wunderground v.1.15,2013-03-27 07:10:00,
2013-03-27 03:15:00,46.2,41.0,30.23,NW,325,0.0,-999.0,82,0.00,,,0.00,Wunderground v.1.15,2013-03-27 07:15:00,
2013-03-27 03:24:00,46.0,40.2,30.23,NW,325,0.0,-999.0,80,0.00,,,0.00,Wunderground v.1.15,2013-03-27 07:24:00,
2013-03-27 03:30:00,45.9,40.4,30.22,NW,325,0.0,-999.0,81,0.00,,,0.00,Wunderground v.1.15,2013-03-27 07:30:00,
2013-03-27 03:39:00,45.8,40.0,30.23,NW,325,0.0,-999.0,80,0.00,,,0.00,Wunderground v.1.15,2013-03-27 07:39:00,
2013-03-27 03:45:00,45.8,40.0,30.23,NW,325,0.0,-999.0,80,0.00,,,0.00,Wunderground v.1.15,2013-03-27 07:45:00,
2013-03-27 03:55:00,45.8,39.7,30.22,NW,325,0.0,-999.0,79,0.00,,,0.00,Wunderground v.1.15,2013-03-27 07:55:00,
2013-03-27 04:00:00,45.8,40.0,30.22,NW,325,0.0,-999.0,80,0.00,,,0.00,Wunderground v.1.15,2013-03-27 08:00:00,
2013-03-27 04:10:00,45.7,39.6,30.22,NW,325,0.0,-999.0,79,0.00,,,0.00,Wunderground v.1.15,2013-03-27 08:10:00,
2013-03-27 04:15:00,45.6,39.1,30.22,NW,325,0.0,-999.0,78,0.00,,,0.00,Wunderground v.1.15,2013-03-27 08:15:00,
2013-03-27 04:20:00,45.5,39.0,30.22,NW,325,0.0,-999.0,78,0.00,,,0.00,Wunderground v.1.15,2013-03-27 08:20:00,
2013-03-27 04:25:00,45.4,38.9,30.22,NW,325,0.0,-999.0,78,0.00,,,0.00,Wunderground v.1.15,2013-03-27 08:25:00,
2013-03-27 04:30:00,45.4,38.6,30.22,NW,325,0.0,-999.0,77,0.00,,,0.00,Wunderground v.1.15,2013-03-27 08:30:00,
2013-03-27 04:40:00,45.2,38.4,30.22,NW,325,0.0,-999.0,77,0.00,,,0.00,Wunderground v.1.15,2013-03-27 08:40:00,
2013-03-27 04:45:00,45.1,38.3,30.23,NW,325,1.0,-999.0,77,0.00,,,0.00,Wunderground v.1.15,2013-03-27 08:45:00,
2013-03-27 04:50:00,45.1,38.3,30.22,NW,325,1.0,-999.0,77,0.00,,,0.00,Wunderground v.1.15,2013-03-27 08:50:00,
2013-03-27 04:55:00,45.0,38.2,30.23,NW,325,0.0,-999.0,77,0.00,,,0.00,Wunderground v.1.15,2013-03-27 08:55:00,
2013-03-27 05:00:00,45.0,37.9,30.22,NW,325,0.0,-999.0,76,0.00,,,0.00,Wunderground v.1.15,2013-03-27 09:00:00,
2013-03-27 05:10:00,44.9,37.8,30.22,NW,325,0.0,-999.0,76,0.00,,,0.00,Wunderground v.1.15,2013-03-27 09:10:00,
2013-03-27 05:15:00,44.8,37.4,30.23,NW,325,0.0,-999.0,75,0.00,,,0.00,Wunderground v.1.15,2013-03-27 09:15:00,
2013-03-27 05:20:00,44.8,37.0,30.23,NW,325,0.0,-999.0,74,0.00,,,0.00,Wunderground v.1.15,2013-03-27 09:20:00,
2013-03-27 05:25:00,44.7,36.9,30.23,NW,325,0.0,-999.0,74,0.00,,,0.00,Wunderground v.1.15,2013-03-27 09:25:00,
2013-03-27 05:34:00,44.5,36.4,30.23,NW,325,0.0,-999.0,73,0.00,,,0.00,Wunderground v.1.15,2013-03-27 09:34:00,
2013-03-27 05:40:00,44.5,36.7,30.23,NW,325,0.0,-999.0,74,0.00,,,0.00,Wunderground v.1.15,2013-03-27 09:40:00,
2013-03-27 05:45:00,44.4,36.6,30.23,NW,325,0.0,-999.0,74,0.00,,,0.00,Wunderground v.1.15,2013-03-27 09:45:00,
2013-03-27 05:50:00,44.3,36.2,30.24,NW,325,0.0,-999.0,73,0.00,,,0.00,Wunderground v.1.15,2013-03-27 09:50:00,
2013-03-27 05:55:00,44.3,36.5,30.24,NW,325,0.0,-999.0,74,0.00,,,0.00,Wunderground v.1.15,2013-03-27 09:55:00,
2013-03-27 06:05:00,44.2,36.1,30.23,NW,325,0.0,-999.0,73,0.00,,,0.00,Wunderground v.1.15,2013-03-27 10:05:00,
2013-03-27 06:10:00,44.1,36.0,30.24,NW,325,0.0,-999.0,73,0.00,,,0.00,Wunderground v.1.15,2013-03-27 10:10:00,
2013-03-27 06:20:00,43.9,35.8,30.24,NW,325,0.0,-999.0,73,0.00,,,0.00,Wunderground v.1.15,2013-03-27 10:20:00,
2013-03-27 06:25:00,43.8,35.7,30.25,NW,325,0.0,-999.0,73,0.00,,,0.00,Wunderground v.1.15,2013-03-27 10:25:00,
2013-03-27 06:30:00,43.8,35.7,30.25,NW,325,0.0,-999.0,73,0.00,,,0.00,Wunderground v.1.15,2013-03-27 10:30:00,
2013-03-27 06:35:00,43.7,35.6,30.25,NW,325,0.0,-999.0,73,0.00,,,0.00,Wunderground v.1.15,2013-03-27 10:35:00,
2013-03-27 06:40:00,43.7,36.6,30.25,NW,325,0.0,-999.0,76,0.00,,,0.00,Wunderground v.1.15,2013-03-27 10:40:00,
2013-03-27 06:49:00,43.5,35.4,30.25,NW,325,0.0,-999.0,73,0.00,,,0.00,Wunderground v.1.15,2013-03-27 10:49:00,
2013-03-27 06:55:00,43.4,35.7,30.26,NW,325,0.0,-999.0,74,0.00,,,0.00,Wunderground v.1.15,2013-03-27 10:55:00,
2013-03-27 07:00:00,43.3,35.2,30.26,NW,325,0.0,-999.0,73,0.00,,,0.00,Wunderground v.1.15,2013-03-27 11:00:00,
2013-03-27 07:09:00,43.2,35.1,30.26,NW,325,0.0,-999.0,73,0.00,,,0.00,Wunderground v.1.15,2013-03-27 11:09:00,
2013-03-27 07:14:00,43.2,35.5,30.27,NW,325,0.0,-999.0,74,0.00,,,0.00,Wunderground v.1.15,2013-03-27 11:14:00,
2013-03-27 07:20:00,43.1,35.0,30.27,NW,325,0.0,-999.0,73,0.00,,,0.00,Wunderground v.1.15,2013-03-27 11:20:00,
2013-03-27 07:25:00,43.0,35.3,30.27,NW,325,0.0,-999.0,74,0.00,,,0.00,Wunderground v.1.15,2013-03-27 11:25:00,
2013-03-27 07:30:00,42.9,35.2,30.27,NW,325,0.0,-999.0,74,0.00,,,0.00,Wunderground v.1.15,2013-03-27 11:30:00,
2013-03-27 07:35:00,42.9,35.2,30.27,NW,325,0.0,-999.0,74,0.00,,,0.00,Wunderground v.1.15,2013-03-27 11:35:00,
2013-03-27 07:44:00,42.9,35.2,30.28,NW,325,0.0,-999.0,74,0.00,,,0.00,Wunderground v.1.15,2013-03-27 11:44:00,
2013-03-27 07:50:00,42.9,35.9,30.28,NW,325,0.0,-999.0,76,0.00,,,0.00,Wunderground v.1.15,2013-03-27 11:50:00,
2013-03-27 07:55:00,43.2,36.1,30.28,NW,325,0.0,-999.0,76,0.00,,,0.00,Wunderground v.1.15,2013-03-27 11:55:00,
2013-03-27 08:00:00,43.7,36.3,30.28,NW,325,0.0,-999.0,75,0.00,,,0.00,Wunderground v.1.15,2013-03-27 12:00:00,
2013-03-27 08:10:00,44.8,36.3,30.28,NW,325,0.0,-999.0,72,0.00,,,0.00,Wunderground v.1.15,2013-03-27 12:10:00,
2013-03-27 08:15:00,45.6,36.7,30.29,NW,325,0.0,-999.0,71,0.00,,,0.00,Wunderground v.1.15,2013-03-27 12:15:00,
2013-03-27 08:20:00,45.9,37.0,30.29,NW,325,0.0,-999.0,71,0.00,,,0.00,Wunderground v.1.15,2013-03-27 12:20:00,
2013-03-27 08:25:00,46.0,36.8,30.29,NW,325,0.0,-999.0,70,0.00,,,0.00,Wunderground v.1.15,2013-03-27 12:25:00,
2013-03-27 08:30:00,46.2,36.6,30.29,NW,325,0.0,-999.0,69,0.00,,,0.00,Wunderground v.1.15,2013-03-27 12:30:00,
2013-03-27 08:40:00,46.5,36.1,30.29,NW,325,0.0,-999.0,67,0.00,,,0.00,Wunderground v.1.15,2013-03-27 12:40:00,
2013-03-27 08:45:00,46.9,37.3,30.30,NW,325,0.0,-999.0,69,0.00,,,0.00,Wunderground v.1.15,2013-03-27 12:45:00,
2013-03-27 08:50:00,47.3,36.9,30.30,NW,324,0.0,-999.0,67,0.00,,,0.00,Wunderground v.1.15,2013-03-27 12:50:00,
2013-03-27 08:55:00,47.8,37.0,30.30,NNW,345,1.0,-999.0,66,0.00,,,0.00,Wunderground v.1.15,2013-03-27 12:55:00,
2013-03-27 09:00:00,48.3,37.1,30.30,North,360,0.0,-999.0,65,0.00,,,0.00,Wunderground v.1.15,2013-03-27 13:00:00,
2013-03-27 09:10:00,49.1,37.4,30.30,North,360,0.0,-999.0,64,0.00,,,0.00,Wunderground v.1.15,2013-03-27 13:10:00,
2013-03-27 09:19:00,49.9,36.1,30.31,North,5,0.0,-999.0,59,0.00,,,0.00,Wunderground v.1.15,2013-03-27 13:19:00,
2013-03-27 09:25:00,50.4,37.0,30.31,North,5,1.0,-999.0,60,0.00,,,0.00,Wunderground v.1.15,2013-03-27 13:25:00,
2013-03-27 09:30:00,50.8,36.5,30.31,North,355,1.0,-999.0,58,0.00,,,0.00,Wunderground v.1.15,2013-03-27 13:30:00,
2013-03-27 09:35:00,51.5,36.3,30.31,ENE,67,0.0,-999.0,56,0.00,,,0.00,Wunderground v.1.15,2013-03-27 13:35:00,
2013-03-27 09:40:00,52.5,35.8,30.31,ENE,60,0.0,-999.0,53,0.00,,,0.00,Wunderground v.1.15,2013-03-27 13:40:00,
2013-03-27 09:49:00,53.7,35.5,30.31,ENE,60,0.0,-999.0,50,0.00,,,0.00,Wunderground v.1.15,2013-03-27 13:49:00,
2013-03-27 09:55:00,53.9,36.2,30.31,North,355,0.0,-999.0,51,0.00,,,0.00,Wunderground v.1.15,2013-03-27 13:55:00,
2013-03-27 10:00:00,54.2,38.4,30.31,NE,37,0.0,-999.0,55,0.00,,,0.00,Wunderground v.1.15,2013-03-27 14:00:00,
2013-03-27 10:09:00,55.0,36.7,30.31,NE,38,0.0,-999.0,50,0.00,,,0.00,Wunderground v.1.15,2013-03-27 14:09:00,
2013-03-27 10:15:00,55.4,34.9,30.31,ENE,67,0.0,-999.0,46,0.00,,,0.00,Wunderground v.1.15,2013-03-27 14:15:00,
2013-03-27 10:20:00,55.7,36.8,30.31,NNE,20,0.0,-999.0,49,0.00,,,0.00,Wunderground v.1.15,2013-03-27 14:20:00,
2013-03-27 10:25:00,55.8,35.3,30.31,NW,325,1.0,-999.0,46,0.00,,,0.00,Wunderground v.1.15,2013-03-27 14:25:00,
2013-03-27 10:35:00,56.7,36.7,30.31,NNW,336,0.0,-999.0,47,0.00,,,0.00,Wunderground v.1.15,2013-03-27 14:35:00,
2013-03-27 10:40:00,56.5,36.0,30.31,NW,321,1.0,-999.0,46,0.00,,,0.00,Wunderground v.1.15,2013-03-27 14:40:00,
2013-03-27 10:45:00,56.9,35.2,30.31,NW,306,1.0,-999.0,44,0.00,,,0.00,Wunderground v.1.15,2013-03-27 14:45:00,
2013-03-27 10:50:00,56.4,35.9,30.31,NW,325,2.0,-999.0,46,0.00,,,0.00,Wunderground v.1.15,2013-03-27 14:50:00,
2013-03-27 11:00:00,57.1,35.4,30.31,ENE,59,0.0,-999.0,44,0.00,,,0.00,Wunderground v.1.15,2013-03-27 15:00:00,
2013-03-27 11:10:00,56.7,35.6,30.32,North,355,4.0,-999.0,45,0.00,,,0.00,Wunderground v.1.15,2013-03-27 15:10:00,
2013-03-27 11:15:00,57.0,34.7,30.31,NW,323,2.0,-999.0,43,0.00,,,0.00,Wunderground v.1.15,2013-03-27 15:15:00,
2013-03-27 11:20:00,57.0,34.7,30.31,NNW,327,2.0,-999.0,43,0.00,,,0.00,Wunderground v.1.15,2013-03-27 15:20:00,
2013-03-27 11:30:00,58.1,35.7,30.31,NW,318,1.0,-999.0,43,0.00,,,0.00,Wunderground v.1.15,2013-03-27 15:30:00,
2013-03-27 11:35:00,58.0,35.6,30.31,WNW,296,2.0,-999.0,43,0.00,,,0.00,Wunderground v.1.15,2013-03-27 15:35:00,
2013-03-27 11:45:00,57.8,36.6,30.31,NNW,340,2.0,-999.0,45,0.00,,,0.00,Wunderground v.1.15,2013-03-27 15:45:00,
2013-03-27 11:50:00,58.3,35.3,30.31,WNW,302,2.0,-999.0,42,0.00,,,0.00,Wunderground v.1.15,2013-03-27 15:50:00,
2013-03-27 11:55:00,57.9,34.9,30.30,NNW,348,4.0,-999.0,42,0.00,,,0.00,Wunderground v.1.15,2013-03-27 15:55:00,
2013-03-27 12:00:00,58.3,36.5,30.30,NNE,15,3.0,-999.0,44,0.00,,,0.00,Wunderground v.1.15,2013-03-27 16:00:00,
2013-03-27 12:09:00,58.3,34.7,30.30,NW,309,5.0,-999.0,41,0.00,,,0.00,Wunderground v.1.15,2013-03-27 16:09:00,
2013-03-27 12:14:00,58.3,34.7,30.30,WNW,294,5.0,-999.0,41,0.00,,,0.00,Wunderground v.1.15,2013-03-27 16:14:00,
2013-03-27 12:25:00,58.7,35.0,30.30,WNW,303,3.0,-999.0,41,0.00,,,0.00,Wunderground v.1.15,2013-03-27 16:25:00,
2013-03-27 12:35:00,58.9,35.2,30.29,NW,321,3.0,-999.0,41,0.00,,,0.00,Wunderground v.1.15,2013-03-27 16:35:00,
2013-03-27 12:40:00,58.8,35.7,30.29,NNW,336,2.0,-999.0,42,0.00,,,0.00,Wunderground v.1.15,2013-03-27 16:40:00,
2013-03-27 12:45:00,59.4,35.1,30.29,NW,325,2.0,-999.0,40,0.00,,,0.00,Wunderground v.1.15,2013-03-27 16:45:00,
2013-03-27 12:50:00,59.9,35.5,30.29,NW,317,3.0,-999.0,40,0.00,,,0.00,Wunderground v.1.15,2013-03-27 16:50:00,
2013-03-27 12:55:00,60.0,35.6,30.28,NW,313,4.0,-999.0,40,0.00,,,0.00,Wunderground v.1.15,2013-03-27 16:55:00,
2013-03-27 13:05:00,60.6,34.8,30.28,WNW,302,2.0,-999.0,38,0.00,,,0.00,Wunderground v.1.15,2013-03-27 17:05:00,
2013-03-27 13:10:00,60.9,36.4,30.28,NW,311,3.0,-999.0,40,0.00,,,0.00,Wunderground v.1.15,2013-03-27 17:10:00,
2013-03-27 13:19:00,60.8,36.3,30.27,NW,317,4.0,-999.0,40,0.00,,,0.00,Wunderground v.1.15,2013-03-27 17:19:00,
2013-03-27 13:25:00,60.3,36.5,30.27,NNW,340,3.0,-999.0,41,0.00,,,0.00,Wunderground v.1.15,2013-03-27 17:25:00,
2013-03-27 13:30:00,60.8,36.9,30.27,NW,321,2.0,-999.0,41,0.00,,,0.00,Wunderground v.1.15,2013-03-27 17:30:00,
2013-03-27 13:35:00,61.4,34.9,30.27,NNW,329,2.0,-999.0,37,0.00,,,0.00,Wunderground v.1.15,2013-03-27 17:35:00,
2013-03-27 13:40:00,62.1,35.5,30.27,NNW,340,2.0,-999.0,37,0.00,,,0.00,Wunderground v.1.15,2013-03-27 17:40:00,
2013-03-27 13:49:00,63.0,36.3,30.26,NW,309,0.0,-999.0,37,0.00,,,0.00,Wunderground v.1.15,2013-03-27 17:49:00,
2013-03-27 13:54:00,63.3,35.9,30.26,NNW,331,1.0,-999.0,36,0.00,,,0.00,Wunderground v.1.15,2013-03-27 17:54:00,
2013-03-27 14:00:00,63.6,36.1,30.26,NNW,331,1.0,-999.0,36,0.00,,,0.00,Wunderground v.1.15,2013-03-27 18:00:00,
2013-03-27 14:05:00,63.6,36.1,30.26,NW,313,2.0,-999.0,36,0.00,,,0.00,Wunderground v.1.15,2013-03-27 18:05:00,
2013-03-27 14:14:00,62.8,36.8,30.25,WNW,297,4.0,-999.0,38,0.00,,,0.00,Wunderground v.1.15,2013-03-27 18:14:00,
2013-03-27 14:20:00,62.8,36.1,30.25,NW,319,5.0,-999.0,37,0.00,,,0.00,Wunderground v.1.15,2013-03-27 18:20:00,
2013-03-27 14:25:00,63.0,40.1,30.25,NW,312,4.0,-999.0,43,0.00,,,0.00,Wunderground v.1.15,2013-03-27 18:25:00,
2013-03-27 14:35:00,64.0,38.5,30.25,NW,323,3.0,-999.0,39,0.00,,,0.00,Wunderground v.1.15,2013-03-27 18:35:00,
2013-03-27 14:40:00,64.3,37.5,30.24,NW,323,3.0,-999.0,37,0.00,,,0.00,Wunderground v.1.15,2013-03-27 18:40:00,
2013-03-27 14:45:00,64.3,36.8,30.25,NNW,330,4.0,-999.0,36,0.00,,,0.00,Wunderground v.1.15,2013-03-27 18:45:00,
2013-03-27 14:55:00,64.9,35.8,30.24,NW,311,2.0,-999.0,34,0.00,,,0.00,Wunderground v.1.15,2013-03-27 18:55:00,
2013-03-27 15:00:00,65.0,38.1,30.24,NW,314,4.0,-999.0,37,0.00,,,0.00,Wunderground v.1.15,2013-03-27 19:00:00,
2013-03-27 15:10:00,63.3,36.6,30.23,WSW,250,4.0,-999.0,37,0.00,,,0.00,Wunderground v.1.15,2013-03-27 19:10:00,
2013-03-27 15:15:00,62.6,36.6,30.23,NW,317,4.0,-999.0,38,0.00,,,0.00,Wunderground v.1.15,2013-03-27 19:15:00,
2013-03-27 15:20:00,63.6,37.5,30.23,WNW,299,4.0,-999.0,38,0.00,,,0.00,Wunderground v.1.15,2013-03-27 19:20:00,
2013-03-27 15:25:00,64.0,37.9,30.23,WNW,301,5.0,-999.0,38,0.00,,,0.00,Wunderground v.1.15,2013-03-27 19:25:00,
2013-03-27 15:30:00,63.5,41.2,30.23,WSW,253,5.0,-999.0,44,0.00,,,0.00,Wunderground v.1.15,2013-03-27 19:30:00,
2013-03-27 15:39:00,62.4,41.3,30.22,NW,307,6.0,-999.0,46,0.00,,,0.00,Wunderground v.1.15,2013-03-27 19:39:00,
2013-03-27 15:44:00,63.0,40.7,30.22,WNW,283,5.0,-999.0,44,0.00,,,0.00,Wunderground v.1.15,2013-03-27 19:44:00,
2013-03-27 15:50:00,63.3,40.4,30.22,WNW,291,5.0,-999.0,43,0.00,,,0.00,Wunderground v.1.15,2013-03-27 19:50:00,
2013-03-27 15:55:00,63.4,41.7,30.22,WNW,300,6.0,-999.0,45,0.00,,,0.00,Wunderground v.1.15,2013-03-27 19:55:00,
2013-03-27 16:00:00,63.2,41.5,30.22,WNW,284,5.0,-999.0,45,0.00,,,0.00,Wunderground v.1.15,2013-03-27 20:00:00,
2013-03-27 16:10:00,63.1,43.1,30.22,NW,304,4.0,-999.0,48,0.00,,,0.00,Wunderground v.1.15,2013-03-27 20:10:00,
2013-03-27 16:15:00,63.1,41.4,30.21,WSW,248,4.0,-999.0,45,0.00,,,0.00,Wunderground v.1.15,2013-03-27 20:15:00,
2013-03-27 16:20:00,62.7,42.2,30.21,SW,233,5.0,-999.0,47,0.00,,,0.00,Wunderground v.1.15,2013-03-27 20:20:00,
2013-03-27 16:25:00,63.0,41.9,30.21,West,265,5.0,-999.0,46,0.00,,,0.00,Wunderground v.1.15,2013-03-27 20:25:00,
2013-03-27 16:35:00,63.3,42.2,30.21,SW,234,5.0,-999.0,46,0.00,,,0.00,Wunderground v.1.15,2013-03-27 20:35:00,
2013-03-27 16:40:00,63.2,43.2,30.21,West,264,4.0,-999.0,48,0.00,,,0.00,Wunderground v.1.15,2013-03-27 20:40:00,
2013-03-27 16:45:00,63.2,42.6,30.21,WNW,299,4.0,-999.0,47,0.00,,,0.00,Wunderground v.1.15,2013-03-27 20:45:00,
2013-03-27 16:50:00,63.5,42.3,30.21,WSW,254,5.0,-999.0,46,0.00,,,0.00,Wunderground v.1.15,2013-03-27 20:50:00,
2013-03-27 16:55:00,63.3,42.7,30.21,WNW,288,6.0,-999.0,47,0.00,,,0.00,Wunderground v.1.15,2013-03-27 20:55:00,
2013-03-27 17:05:00,63.3,41.6,30.21,West,261,5.0,-999.0,45,0.00,,,0.00,Wunderground v.1.15,2013-03-27 21:05:00,
2013-03-27 17:10:00,62.9,43.4,30.21,WSW,250,4.0,-999.0,49,0.00,,,0.00,Wunderground v.1.15,2013-03-27 21:10:00,
2013-03-27 17:15:00,62.5,42.5,30.21,WNW,295,5.0,-999.0,48,0.00,,,0.00,Wunderground v.1.15,2013-03-27 21:15:00,
2013-03-27 17:20:00,61.8,44.0,30.21,SSW,211,6.0,-999.0,52,0.00,,,0.00,Wunderground v.1.15,2013-03-27 21:20:00,
2013-03-27 17:25:00,61.7,43.4,30.21,WSW,248,6.0,-999.0,51,0.00,,,0.00,Wunderground v.1.15,2013-03-27 21:25:00,
2013-03-27 17:34:00,62.2,42.3,30.21,WNW,288,5.0,-999.0,48,0.00,,,0.00,Wunderground v.1.15,2013-03-27 21:34:00,
2013-03-27 17:40:00,61.6,43.8,30.22,WSW,254,6.0,-999.0,52,0.00,,,0.00,Wunderground v.1.15,2013-03-27 21:40:00,
2013-03-27 17:45:00,61.8,44.0,30.22,NW,311,6.0,-999.0,52,0.00,,,0.00,Wunderground v.1.15,2013-03-27 21:45:00,
2013-03-27 17:50:00,62.1,44.8,30.22,WNW,302,5.0,-999.0,53,0.00,,,0.00,Wunderground v.1.15,2013-03-27 21:50:00,
2013-03-27 17:55:00,62.0,45.2,30.22,West,264,6.0,-999.0,54,0.00,,,0.00,Wunderground v.1.15,2013-03-27 21:55:00,
2013-03-27 18:05:00,61.9,45.1,30.22,WSW,241,5.0,-999.0,54,0.00,,,0.00,Wunderground v.1.15,2013-03-27 22:05:00,
2013-03-27 18:14:00,61.6,46.7,30.22,WSW,240,6.0,-999.0,58,0.00,,,0.00,Wunderground v.1.15,2013-03-27 22:14:00,
2013-03-27 18:19:00,61.4,46.9,30.22,NW,307,5.0,-999.0,59,0.00,,,0.00,Wunderground v.1.15,2013-03-27 22:19:00,
2013-03-27 18:25:00,61.6,46.7,30.22,West,265,5.0,-999.0,58,0.00,,,0.00,Wunderground v.1.15,2013-03-27 22:25:00,
2013-03-27 18:30:00,61.4,46.5,30.22,WSW,253,5.0,-999.0,58,0.00,,,0.00,Wunderground v.1.15,2013-03-27 22:30:00,
2013-03-27 18:35:00,61.4,45.6,30.22,WNW,300,4.0,-999.0,56,0.00,,,0.00,Wunderground v.1.15,2013-03-27 22:35:00,
2013-03-27 18:40:00,61.0,45.7,30.22,West,263,5.0,-999.0,57,0.00,,,0.00,Wunderground v.1.15,2013-03-27 22:40:00,
2013-03-27 18:50:00,60.5,45.6,30.22,WSW,241,4.0,-999.0,58,0.00,,,0.00,Wunderground v.1.15,2013-03-27 22:50:00,
2013-03-27 18:59:00,60.0,45.6,30.22,West,273,4.0,-999.0,59,0.00,,,0.00,Wunderground v.1.15,2013-03-27 22:59:00,
2013-03-27 19:05:00,59.8,45.4,30.22,West,280,4.0,-999.0,59,0.00,,,0.00,Wunderground v.1.15,2013-03-27 23:05:00,
2013-03-27 19:10:00,59.5,46.0,30.22,WNW,296,4.0,-999.0,61,0.00,,,0.00,Wunderground v.1.15,2013-03-27 23:10:00,
2013-03-27 19:19:00,58.6,46.5,30.22,WNW,300,4.0,-999.0,64,0.00,,,0.00,Wunderground v.1.15,2013-03-27 23:19:00,
2013-03-27 19:24:00,58.2,46.1,30.22,West,265,3.0,-999.0,64,0.00,,,0.00,Wunderground v.1.15,2013-03-27 23:24:00,
2013-03-27 19:30:00,57.9,45.4,30.22,NW,310,3.0,-999.0,63,0.00,,,0.00,Wunderground v.1.15,2013-03-27 23:30:00,
2013-03-27 19:35:00,57.7,46.0,30.22,WNW,294,3.0,-999.0,65,0.00,,,0.00,Wunderground v.1.15,2013-03-27 23:35:00,
2013-03-27 19:40:00,57.4,45.7,30.22,WNW,298,3.0,-999.0,65,0.00,,,0.00,Wunderground v.1.15,2013-03-27 23:40:00,
2013-03-27 19:45:00,57.1,45.4,30.22,West,267,3.0,-999.0,65,0.00,,,0.00,Wunderground v.1.15,2013-03-27 23:45:00,
2013-03-27 19:50:00,56.8,44.7,30.22,NW,323,4.0,-999.0,64,0.00,,,0.00,Wunderground v.1.15,2013-03-27 23:50:00,
2013-03-27 19:59:00,56.4,44.8,30.23,NW,304,3.0,-999.0,65,0.00,,,0.00,Wunderground v.1.15,2013-03-27 23:59:00,
2013-03-27 20:05:00,56.2,45.0,30.22,WNW,302,2.0,-999.0,66,0.00,,,0.00,Wunderground v.1.15,2013-03-28 00:05:00,
2013-03-27 20:10:00,56.0,44.8,30.22,WNW,298,2.0,-999.0,66,0.00,,,0.00,Wunderground v.1.15,2013-03-28 00:10:00,
2013-03-27 20:15:00,55.9,45.1,30.22,WNW,297,3.0,-999.0,67,0.00,,,0.00,Wunderground v.1.15,2013-03-28 00:15:00,
2013-03-27 20:25:00,55.6,44.8,30.23,NW,307,2.0,-999.0,67,0.00,,,0.00,Wunderground v.1.15,2013-03-28 00:25:00,
2013-03-27 20:30:00,55.5,44.7,30.23,NW,304,2.0,-999.0,67,0.00,,,0.00,Wunderground v.1.15,2013-03-28 00:30:00,
2013-03-27 20:35:00,55.4,44.6,30.23,NW,309,3.0,-999.0,67,0.00,,,0.00,Wunderground v.1.15,2013-03-28 00:35:00,
2013-03-27 20:40:00,55.2,44.4,30.23,NW,307,3.0,-999.0,67,0.00,,,0.00,Wunderground v.1.15,2013-03-28 00:40:00,
2013-03-27 20:45:00,55.1,44.3,30.23,WNW,300,3.0,-999.0,67,0.00,,,0.00,Wunderground v.1.15,2013-03-28 00:45:00,
2013-03-27 20:50:00,55.0,44.2,30.24,NW,309,3.0,-999.0,67,0.00,,,0.00,Wunderground v.1.15,2013-03-28 00:50:00,
2013-03-27 21:00:00,54.8,44.0,30.24,NW,314,3.0,-999.0,67,0.00,,,0.00,Wunderground v.1.15,2013-03-28 01:00:00,
2013-03-27 21:10:00,54.5,44.2,30.24,NW,325,3.0,-999.0,68,0.00,,,0.00,Wunderground v.1.15,2013-03-28 01:10:00,
2013-03-27 21:19:00,54.3,44.3,30.24,WNW,286,4.0,-999.0,69,0.00,,,0.00,Wunderground v.1.15,2013-03-28 01:19:00,
2013-03-27 21:25:00,54.2,44.6,30.25,WNW,300,4.0,-999.0,70,0.00,,,0.00,Wunderground v.1.15,2013-03-28 01:25:00,
2013-03-27 21:30:00,54.1,44.5,30.25,NW,317,4.0,-999.0,70,0.00,,,0.00,Wunderground v.1.15,2013-03-28 01:30:00,
2013-03-27 21:35:00,54.0,44.4,30.24,NW,319,4.0,-999.0,70,0.00,,,0.00,Wunderground v.1.15,2013-03-28 01:35:00,
2013-03-27 21:40:00,53.9,44.3,30.25,NW,304,5.0,-999.0,70,0.00,,,0.00,Wunderground v.1.15,2013-03-28 01:40:00,
2013-03-27 21:45:00,53.8,44.2,30.25,NW,319,4.0,-999.0,70,0.00,,,0.00,Wunderground v.1.15,2013-03-28 01:45:00,
2013-03-27 21:55:00,53.5,43.6,30.25,NW,317,3.0,-999.0,69,0.00,,,0.00,Wunderground v.1.15,2013-03-28 01:55:00,
2013-03-27 22:00:00,53.3,43.0,30.25,NW,316,3.0,-999.0,68,0.00,,,0.00,Wunderground v.1.15,2013-03-28 02:00:00,
2013-03-27 22:10:00,53.0,41.9,30.26,NW,318,3.0,-999.0,66,0.00,,,0.00,Wunderground v.1.15,2013-03-28 02:10:00,
2013-03-27 22:15:00,52.8,41.4,30.26,NW,317,3.0,-999.0,65,0.00,,,0.00,Wunderground v.1.15,2013-03-28 02:15:00,
2013-03-27 22:20:00,52.7,40.5,30.26,NW,321,3.0,-999.0,63,0.00,,,0.00,Wunderground v.1.15,2013-03-28 02:20:00,
2013-03-27 22:25:00,52.5,39.8,30.26,NW,315,4.0,-999.0,62,0.00,,,0.00,Wunderground v.1.15,2013-03-28 02:25:00,
2013-03-27 22:34:00,52.2,38.7,30.26,NW,321,3.0,-999.0,60,0.00,,,0.00,Wunderground v.1.15,2013-03-28 02:34:00,
2013-03-27 22:40:00,52.1,38.6,30.26,NW,321,3.0,-999.0,60,0.00,,,0.00,Wunderground v.1.15,2013-03-28 02:40:00,
2013-03-27 22:45:00,51.9,38.9,30.26,NW,325,3.0,-999.0,61,0.00,,,0.00,Wunderground v.1.15,2013-03-28 02:45:00,
2013-03-27 22:50:00,51.7,38.7,30.26,NW,310,3.0,-999.0,61,0.00,,,0.00,Wunderground v.1.15,2013-03-28 02:50:00,
2013-03-27 23:00:00,51.4,38.4,30.26,NW,318,4.0,-999.0,61,0.00,,,0.00,Wunderground v.1.15,2013-03-28 03:00:00,
2013-03-27 23:10:00,51.2,38.6,30.27,NW,313,2.0,-999.0,62,0.00,,,0.00,Wunderground v.1.15,2013-03-28 03:10:00,
2013-03-27 23:15:00,51.0,38.4,30.27,NW,314,2.0,-999.0,62,0.00,,,0.00,Wunderground v.1.15,2013-03-28 03:15:00,
2013-03-27 23:20:00,50.8,38.7,30.27,NW,305,2.0,-999.0,63,0.00,,,0.00,Wunderground v.1.15,2013-03-28 03:20:00,
2013-03-27 23:30:00,50.5,38.8,30.27,NW,317,3.0,-999.0,64,0.00,,,0.00,Wunderground v.1.15,2013-03-28 03:30:00,
2013-03-27 23:35:00,50.3,38.6,30.26,NW,323,3.0,-999.0,64,0.00,,,0.00,Wunderground v.1.15,2013-03-28 03:35:00,
2013-03-27 23:40:00,50.2,39.3,30.26,NW,316,3.0,-999.0,66,0.00,,,0.00,Wunderground v.1.15,2013-03-28 03:40:00,
2013-03-27 23:45:00,50.0,38.7,30.26,NW,318,2.0,-999.0,65,0.00,,,0.00,Wunderground v.1.15,2013-03-28 03:45:00,
2013-03-27 23:50:00,50.0,39.1,30.26,NW,320,2.0,-999.0,66,0.00,,,0.00,Wunderground v.1.15,2013-03-28 03:50:00,
2013-03-27 23:55:00,49.9,39.4,30.26,NW,320,2.0,-999.0,67,0.00,,,0.00,Wunderground v.1.15,2013-03-28 03:55:00,